Terminal Aerodrome Forecast
Issued by NWS

Home | Current Version | Previous Version | Text Only | Print | Product List | Glossary On
Versions: 1 2 3 4 5 6 7 8 9 10 11 12 13
000
FTUS46 KMFR 030520 AAA
TAFLMT
TAF AMD
KLMT 030520Z 0305/0324 33013KT P6SM FEW040 OVC070
     FM030700 34006KT P6SM SCT040 BKN060
     FM031100 30004KT P6SM SCT040 SCT060
     FM032100 33010G18KT P6SM SCT200=

USA.gov is the U.S. government's official web portal to all federal, state and local government web resources and services.